Time;durP1;ratioP1;P1;durP2;ratioP2;P2;SDS_P1;SDS_P2;PMS_P1;PMS_P2;Temp;Humidity;BMP_temperature;BMP_pressure;BME280_temperature;BME280_humidity;BME280_pressure;Samples;Min_cycle;Max_cycle;Signal;HPM_P1;HPM_P2
2021/10/12 00:01:46;;;;;;;8.93;1.15;;;;;;;8.45;55.40;101956.34;5035155;28;20037;-66
2021/10/12 00:04:12;;;;;;;6.18;0.20;;;;;;;8.66;55.19;101956.91;5049607;28;20513;-67
2021/10/12 00:06:39;;;;;;;5.70;0.50;;;;;;;8.74;54.75;101949.88;5047319;28;20116;-67
2021/10/12 00:09:06;;;;;;;8.77;0.20;;;;;;;8.69;54.98;101954.25;5035754;28;20036;-67
2021/10/12 00:11:32;;;;;;;0.77;0.15;;;;;;;8.79;54.86;101948.06;5047628;28;20033;-66
2021/10/12 00:13:57;;;;;;;7.85;0.65;;;;;;;8.88;54.62;101954.88;5030129;28;23322;-65
2021/10/12 00:16:23;;;;;;;3.83;0.10;;;;;;;9.03;54.31;101972.00;5027588;28;20067;-65
2021/10/12 00:18:49;;;;;;;3.15;0.30;;;;;;;9.02;53.91;101975.53;5029392;28;20300;-65
2021/10/12 00:21:15;;;;;;;5.43;0.73;;;;;;;8.66;55.65;101972.56;5028275;28;20040;-67
2021/10/12 00:23:40;;;;;;;5.50;0.30;;;;;;;8.80;55.49;101965.41;5048673;28;20493;-66
2021/10/12 00:26:09;;;;;;;5.93;0.40;;;;;;;8.59;56.30;101944.88;5018750;28;20094;-66
2021/10/12 00:28:34;;;;;;;5.40;0.20;;;;;;;8.84;55.46;101935.81;5048481;28;20585;-65
2021/10/12 00:31:02;;;;;;;1.45;0.50;;;;;;;8.79;56.03;101935.03;5046190;28;20056;-66
2021/10/12 00:33:30;;;;;;;6.10;0.40;;;;;;;8.65;56.34;101926.50;5031687;28;20045;-66
2021/10/12 00:35:55;;;;;;;2.20;0.35;;;;;;;8.66;56.23;101912.63;5028353;28;20589;-66
2021/10/12 00:38:22;;;;;;;3.65;0.32;;;;;;;8.74;56.32;101905.56;5045855;28;20045;-66
2021/10/12 00:40:47;;;;;;;7.32;0.20;;;;;;;8.72;56.27;101907.34;5049818;28;20037;-65
2021/10/12 00:43:13;;;;;;;8.45;0.75;;;;;;;8.57;56.91;101911.84;5047836;28;20524;-69
2021/10/12 00:45:38;;;;;;;9.73;0.63;;;;;;;8.76;56.17;101903.78;5049235;28;20051;-69
2021/10/12 00:48:06;;;;;;;7.32;0.50;;;;;;;8.80;56.13;101904.59;5034882;28;20075;-69
2021/10/12 00:50:34;;;;;;;3.65;0.63;;;;;;;8.97;55.36;101900.84;5048266;28;20033;-70
2021/10/12 00:53:01;;;;;;;2.72;0.50;;;;;;;8.96;55.25;101890.41;5027079;28;20049;-69
2021/10/12 00:55:26;;;;;;;2.55;0.10;;;;;;;8.70;55.84;101885.63;5027902;28;20029;-68
2021/10/12 00:57:55;;;;;;;6.80;0.38;;;;;;;8.91;55.82;101885.28;5028332;28;20138;-70
2021/10/12 01:00:22;;;;;;;8.43;0.20;;;;;;;8.87;55.68;101882.75;5026987;28;20044;-70
2021/10/12 01:02:47;;;;;;;9.35;0.20;;;;;;;8.96;55.63;101882.59;5028070;28;20119;-70
2021/10/12 01:05:13;;;;;;;6.85;0.22;;;;;;;9.05;55.39;101871.16;5028189;28;20506;-70
2021/10/12 01:07:39;;;;;;;3.58;0.38;;;;;;;8.76;56.15;101869.88;5026421;28;20057;-70
2021/10/12 01:10:07;;;;;;;6.32;0.38;;;;;;;8.83;55.95;101861.09;5031175;28;20033;-70
2021/10/12 01:12:33;;;;;;;6.22;0.28;;;;;;;8.77;56.50;101861.19;5026846;28;20034;-69
2021/10/12 01:14:59;;;;;;;5.85;0.52;;;;;;;8.68;56.39;101861.31;5028178;28;20042;-69
2021/10/12 01:17:24;;;;;;;6.07;0.63;;;;;;;8.89;55.94;101853.16;5027340;28;20098;-70
2021/10/12 01:19:52;;;;;;;12.18;0.85;;;;;;;8.93;56.09;101857.44;5025277;28;20033;-69
2021/10/12 01:22:18;;;;;;;3.97;0.63;;;;;;;8.81;55.83;101849.84;5035576;28;21128;-66
2021/10/12 01:24:43;;;;;;;11.70;0.30;;;;;;;8.94;55.79;101842.66;5033971;28;20044;-65
2021/10/12 01:27:09;;;;;;;5.78;0.40;;;;;;;8.67;56.75;101849.16;5025870;28;20072;-64
2021/10/12 01:29:34;;;;;;;4.65;0.35;;;;;;;8.93;55.81;101844.41;5029125;28;20214;-65
2021/10/12 01:32:00;;;;;;;4.38;0.50;;;;;;;9.01;55.61;101846.00;5027443;28;20049;-66
2021/10/12 01:34:26;;;;;;;0.88;0.10;;;;;;;8.72;56.17;101839.56;5027284;28;20037;-66
2021/10/12 01:36:51;;;;;;;5.68;0.28;;;;;;;8.67;56.62;101830.91;5033298;28;20048;-67
2021/10/12 01:39:17;;;;;;;5.35;0.20;;;;;;;8.86;56.16;101828.91;5051321;28;20539;-67
2021/10/12 01:41:43;;;;;;;4.85;0.47;;;;;;;8.46;57.71;101819.97;5054690;28;20926;-67
2021/10/12 01:44:12;;;;;;;2.05;0.10;;;;;;;8.71;57.05;101819.59;5034263;28;20043;-71
2021/10/12 01:46:37;;;;;;;3.90;0.30;;;;;;;8.75;57.19;101816.06;5043170;28;21775;-69
2021/10/12 01:49:03;;;;;;;2.40;0.20;;;;;;;8.73;57.28;101817.81;5050682;28;20037;-70
2021/10/12 01:51:28;;;;;;;5.75;0.40;;;;;;;8.77;57.77;101807.31;5049029;28;20053;-70
2021/10/12 01:53:54;;;;;;;6.90;0.50;;;;;;;8.89;57.44;101806.22;5035898;28;20036;-70
2021/10/12 01:56:19;;;;;;;7.00;0.40;;;;;;;8.82;58.07;101801.16;5050394;28;20064;-70
2021/10/12 01:58:50;;;;;;;7.20;0.50;;;;;;;8.78;58.02;101805.56;5043365;28;20120;-69
2021/10/12 02:01:24;;;;;;;7.90;0.40;;;;;;;9.00;57.76;101798.22;5053163;28;20039;-69
2021/10/12 02:03:50;;;;;;;1.73;0.20;;;;;;;9.03;57.31;101792.09;5031077;28;20041;-68
2021/10/12 02:06:16;;;;;;;11.25;0.30;;;;;;;9.30;56.61;101794.16;5030224;28;20048;-68
2021/10/12 02:08:43;;;;;;;5.05;0.40;;;;;;;9.17;57.22;101790.09;5028304;28;20536;-68
2021/10/12 02:11:09;;;;;;;7.95;0.82;;;;;;;9.23;57.09;101804.75;5029168;28;21077;-66
2021/10/12 02:13:34;;;;;;;8.63;0.90;;;;;;;9.17;57.54;101797.91;5030870;28;20095;-65
2021/10/12 02:16:00;;;;;;;2.10;0.32;;;;;;;8.90;58.02;101797.53;5047524;28;20112;-67
2021/10/12 02:18:25;;;;;;;12.38;1.42;;;;;;;9.27;56.79;101801.19;5033527;28;20370;-68
2021/10/12 02:20:51;;;;;;;6.03;0.65;;;;;;;9.39;56.43;101804.41;5038850;28;20044;-68
2021/10/12 02:23:17;;;;;;;5.68;0.20;;;;;;;9.32;56.44;101802.81;5031930;28;20040;-69
2021/10/12 02:25:43;;;;;;;6.18;0.30;;;;;;;9.29;56.10;101796.81;5045887;28;20080;-69
2021/10/12 02:28:08;;;;;;;2.65;0.40;;;;;;;9.24;56.45;101798.66;5038853;28;20532;-68
2021/10/12 02:30:34;;;;;;;6.10;0.20;;;;;;;9.44;55.69;101788.66;5031115;28;20044;-67
2021/10/12 02:33:00;;;;;;;5.10;0.13;;;;;;;9.68;55.33;101783.81;5043284;28;20078;-67
2021/10/12 02:35:25;;;;;;;7.43;1.10;;;;;;;9.72;54.88;101777.63;5034504;28;20421;-66
2021/10/12 02:37:51;;;;;;;3.63;0.10;;;;;;;9.73;54.94;101780.22;5050777;28;20043;-66
2021/10/12 02:40:16;;;;;;;7.22;0.65;;;;;;;9.70;55.13;101774.19;5050151;28;20463;-66
2021/10/12 02:42:42;;;;;;;2.92;0.30;;;;;;;9.51;55.45;101765.91;5030150;28;20131;-67
2021/10/12 02:45:08;;;;;;;8.00;0.55;;;;;;;9.70;54.89;101771.56;5031669;28;20091;-67
2021/10/12 02:47:34;;;;;;;2.65;0.32;;;;;;;9.72;55.42;101770.69;5037376;28;20608;-66
2021/10/12 02:50:01;;;;;;;8.38;0.10;;;;;;;9.75;55.06;101770.59;5049579;28;20033;-67
2021/10/12 02:52:27;;;;;;;9.85;0.22;;;;;;;9.78;54.95;101765.28;5021031;28;20045;-67
2021/10/12 02:54:52;;;;;;;4.78;0.35;;;;;;;9.71;55.07;101773.31;5016778;28;20098;-67
2021/10/12 02:57:18;;;;;;;10.32;0.65;;;;;;;9.25;56.70;101772.50;5039939;28;20060;-68
2021/10/12 02:59:43;;;;;;;3.38;0.35;;;;;;;9.40;55.94;101769.59;5038750;28;20027;-70
2021/10/12 03:02:08;;;;;;;8.35;0.13;;;;;;;9.43;56.17;101767.81;5030488;28;20041;-69
2021/10/12 03:04:34;;;;;;;5.88;0.47;;;;;;;9.43;56.35;101752.16;5031584;28;20033;-70
2021/10/12 03:06:59;;;;;;;3.67;0.10;;;;;;;9.53;56.23;101761.53;5033225;28;20129;-70
2021/10/12 03:09:25;;;;;;;2.95;0.10;;;;;;;9.57;56.09;101755.34;5021355;28;20405;-66
2021/10/12 03:11:50;;;;;;;5.20;0.10;;;;;;;9.44;56.36;101754.75;5041431;28;20053;-66
2021/10/12 03:14:16;;;;;;;5.07;0.50;;;;;;;9.57;56.16;101758.81;5051958;28;20037;-66
2021/10/12 03:16:41;;;;;;;5.40;0.60;;;;;;;9.67;55.61;101753.38;5051160;28;20040;-66
2021/10/12 03:19:10;;;;;;;10.45;1.15;;;;;;;9.68;55.80;101742.03;5052985;28;20033;-66
2021/10/12 03:21:36;;;;;;;6.15;0.77;;;;;;;9.72;55.65;101755.00;5052012;28;20616;-66
2021/10/12 03:24:02;;;;;;;3.33;0.10;;;;;;;9.60;56.24;101744.84;5053423;28;20037;-67
2021/10/12 03:26:30;;;;;;;4.28;0.22;;;;;;;9.60;56.06;101747.44;5051722;28;20032;-66
2021/10/12 03:28:57;;;;;;;6.07;0.20;;;;;;;9.68;55.92;101740.31;5048113;28;20356;-67
2021/10/12 03:31:22;;;;;;;4.47;0.20;;;;;;;9.80;55.64;101737.44;5030781;28;20029;-67
2021/10/12 03:33:48;;;;;;;6.18;0.57;;;;;;;9.82;55.90;101740.03;5015553;28;20029;-67
2021/10/12 03:36:16;;;;;;;1.98;0.10;;;;;;;9.83;55.63;101744.34;5030953;28;20394;-68
2021/10/12 03:38:42;;;;;;;2.95;0.68;;;;;;;9.92;55.47;101735.44;5034752;28;20406;-68
2021/10/12 03:41:08;;;;;;;2.85;0.20;;;;;;;9.89;55.44;101730.28;5037971;28;20048;-68
2021/10/12 03:43:34;;;;;;;1.77;0.10;;;;;;;9.93;55.62;101731.94;5046737;28;20087;-68
2021/10/12 03:46:00;;;;;;;2.15;0.10;;;;;;;9.93;55.52;101727.56;5051137;28;20029;-67
2021/10/12 03:48:25;;;;;;;4.00;0.20;;;;;;;9.95;55.31;101719.72;5030266;28;20042;-67
2021/10/12 03:50:50;;;;;;;4.57;0.20;;;;;;;9.90;55.49;101718.94;5014733;28;20660;-66
2021/10/12 03:53:16;;;;;;;5.32;0.38;;;;;;;9.94;55.11;101710.16;5042631;28;20097;-67
2021/10/12 03:55:41;;;;;;;2.95;0.57;;;;;;;9.84;55.27;101711.28;5039800;28;20024;-68
2021/10/12 03:58:07;;;;;;;2.50;0.05;;;;;;;9.83;54.98;101704.31;5032643;28;20180;-70
2021/10/12 04:00:32;;;;;;;3.17;0.10;;;;;;;9.89;55.39;101704.19;5028412;28;20074;-70
2021/10/12 04:03:00;;;;;;;4.85;0.13;;;;;;;9.80;55.48;101710.47;5026316;28;21198;-70
2021/10/12 04:05:26;;;;;;;1.90;0.10;;;;;;;9.83;55.66;101710.41;5021344;28;20236;-67
2021/10/12 04:07:51;;;;;;;2.05;0.30;;;;;;;9.75;55.48;101702.72;5028390;28;20033;-67
2021/10/12 04:10:17;;;;;;;2.20;0.10;;;;;;;9.81;55.40;101712.19;5034495;28;20037;-68
2021/10/12 04:12:42;;;;;;;6.20;0.52;;;;;;;9.87;55.44;101705.97;5039399;28;20045;-67
2021/10/12 04:15:08;;;;;;;1.30;0.20;;;;;;;9.88;55.66;101708.56;5048692;28;20046;-67
2021/10/12 04:17:33;;;;;;;9.70;0.40;;;;;;;9.88;55.49;101712.91;5048940;28;20043;-67
2021/10/12 04:19:59;;;;;;;3.30;0.10;;;;;;;9.76;55.33;101704.41;5035795;28;20043;-66
2021/10/12 04:22:24;;;;;;;2.10;0.10;;;;;;;9.75;55.42;101707.94;5023396;28;20580;-67
2021/10/12 04:24:50;;;;;;;1.20;0.85;;;;;;;9.70;55.71;101703.72;5031608;28;20096;-67
2021/10/12 04:27:17;;;;;;;2.60;0.85;;;;;;;9.56;55.78;101702.25;5037091;28;20527;-67
2021/10/12 04:29:43;;;;;;;3.13;0.10;;;;;;;9.67;55.60;101701.19;5032078;28;20643;-67
2021/10/12 04:32:09;;;;;;;4.72;0.45;;;;;;;9.76;55.30;101708.78;5041217;28;20296;-66
2021/10/12 04:34:35;;;;;;;1.52;0.30;;;;;;;9.74;55.26;101711.44;5009337;28;20034;-67
2021/10/12 04:37:01;;;;;;;1.02;0.10;;;;;;;9.74;55.38;101715.81;5013334;28;20044;-68
2021/10/12 04:39:28;;;;;;;5.40;0.10;;;;;;;9.70;55.34;101715.03;5030312;28;20065;-67
2021/10/12 04:41:57;;;;;;;4.22;0.10;;;;;;;9.60;55.76;101721.34;5033028;28;20033;-68
2021/10/12 04:44:23;;;;;;;6.32;0.20;;;;;;;9.62;55.19;101722.16;5040414;28;20041;-68
2021/10/12 04:46:48;;;;;;;1.70;0.20;;;;;;;9.59;55.62;101727.47;5050863;28;20404;-68
2021/10/12 04:49:14;;;;;;;8.38;0.22;;;;;;;9.61;55.42;101725.69;5046376;28;20098;-69
2021/10/12 04:51:40;;;;;;;4.50;0.20;;;;;;;9.52;55.56;101716.31;5048586;28;20044;-68
2021/10/12 04:54:05;;;;;;;16.13;0.80;;;;;;;9.27;56.36;101702.06;5029967;28;20029;-68
2021/10/12 04:56:31;;;;;;;10.35;0.32;;;;;;;9.28;55.99;101702.03;5032080;28;20417;-69
2021/10/12 04:58:56;;;;;;;4.88;0.30;;;;;;;9.10;55.96;101705.03;5031372;28;20036;-70
2021/10/12 05:01:21;;;;;;;8.10;0.65;;;;;;;9.15;55.66;101705.78;5037734;28;20431;-70
2021/10/12 05:03:47;;;;;;;5.45;0.85;;;;;;;9.21;55.09;101703.06;5027750;28;20025;-69
2021/10/12 05:06:12;;;;;;;6.25;1.30;;;;;;;9.05;55.45;101709.47;5016627;28;20445;-67
2021/10/12 05:08:38;;;;;;;7.38;0.77;;;;;;;8.98;55.39;101704.41;5032677;28;20481;-67
2021/10/12 05:11:03;;;;;;;8.77;0.45;;;;;;;8.73;55.98;101703.13;5051572;28;20108;-68
2021/10/12 05:13:29;;;;;;;4.78;0.50;;;;;;;8.96;55.56;101706.16;5032741;28;20095;-67
2021/10/12 05:15:55;;;;;;;6.97;0.32;;;;;;;9.09;54.82;101706.75;5023558;28;20117;-68
2021/10/12 05:18:26;;;;;;;4.93;0.73;;;;;;;9.09;54.86;101700.69;5027904;28;20036;-67
2021/10/12 05:20:53;;;;;;;5.55;0.50;;;;;;;8.96;54.62;101710.50;5033732;28;20120;-68
2021/10/12 05:23:20;;;;;;;7.68;0.30;;;;;;;9.10;54.10;101697.22;5034714;28;20465;-68
2021/10/12 05:25:49;;;;;;;4.80;0.20;;;;;;;9.15;54.09;101695.34;5030126;28;20041;-69
2021/10/12 05:28:18;;;;;;;6.63;0.47;;;;;;;9.19;54.17;101707.44;5032561;28;20048;-71
2021/10/12 05:30:44;;;;;;;3.05;0.25;;;;;;;9.25;54.00;101704.69;5043666;28;20445;-69
2021/10/12 05:33:18;;;;;;;9.90;0.70;;;;;;;9.22;54.29;101701.31;5052731;28;20041;-69
2021/10/12 05:35:45;;;;;;;7.72;0.57;;;;;;;9.17;54.17;101698.78;5033500;28;20033;-69
2021/10/12 05:38:11;;;;;;;10.40;0.80;;;;;;;8.85;54.76;101705.53;5052698;28;20046;-69
2021/10/12 05:40:37;;;;;;;11.85;0.43;;;;;;;9.17;53.76;101694.44;5053308;28;20036;-70
2021/10/12 05:43:02;;;;;;;2.08;0.50;;;;;;;9.27;53.65;101702.91;5031386;28;20136;-67
2021/10/12 05:45:28;;;;;;;6.22;0.20;;;;;;;9.23;53.82;101700.41;5033013;28;20120;-66
2021/10/12 05:47:54;;;;;;;5.78;0.30;;;;;;;9.19;53.91;101697.03;5028243;28;20461;-67
2021/10/12 05:50:19;;;;;;;5.05;0.30;;;;;;;9.23;53.63;101701.28;5039873;28;20029;-68
2021/10/12 05:58:14;;;;;;;4.03;0.20;;;;;;;9.32;53.43;101685.44;5030478;28;20052;-68
2021/10/12 06:00:40;;;;;;;3.80;0.20;;;;;;;9.31;53.29;101686.31;5035275;28;20130;-68
2021/10/12 06:03:06;;;;;;;7.43;0.40;;;;;;;9.27;53.65;101692.47;5019212;28;20079;-68
2021/10/12 06:05:33;;;;;;;7.65;0.47;;;;;;;9.30;53.47;101696.78;5016291;28;20554;-68
2021/10/12 06:07:59;;;;;;;4.28;0.40;;;;;;;9.28;53.26;101706.41;5030001;28;20078;-66
2021/10/12 06:10:25;;;;;;;4.55;0.35;;;;;;;9.23;53.45;101710.84;5013861;28;20041;-68
2021/10/12 06:12:50;;;;;;;6.95;0.40;;;;;;;9.23;53.53;101703.00;5025490;28;20424;-69
2021/10/12 06:15:16;;;;;;;3.78;0.40;;;;;;;9.19;53.58;101697.88;5050815;28;20044;-68
2021/10/12 06:17:41;;;;;;;4.50;0.17;;;;;;;9.35;53.52;101705.38;5037695;28;20116;-69
2021/10/12 06:20:07;;;;;;;2.65;0.10;;;;;;;9.47;53.32;101709.47;5029811;28;20033;-68
2021/10/12 06:22:33;;;;;;;5.15;0.68;;;;;;;9.46;53.28;101705.16;5023285;28;20043;-66
2021/10/12 06:24:58;;;;;;;3.40;0.65;;;;;;;9.46;53.22;101706.00;5053267;28;20068;-67
2021/10/12 06:27:24;;;;;;;5.18;0.50;;;;;;;9.46;52.87;101705.16;5049290;28;20144;-68
2021/10/12 06:29:49;;;;;;;9.20;1.00;;;;;;;9.43;53.11;101699.97;5051946;28;20047;-68
2021/10/12 06:32:15;;;;;;;5.15;0.40;;;;;;;9.35;53.18;101706.22;5050399;28;20153;-68
2021/10/12 06:34:40;;;;;;;2.88;0.32;;;;;;;9.43;52.38;101699.97;5048141;28;20108;-68
2021/10/12 06:37:05;;;;;;;4.32;0.43;;;;;;;9.46;52.12;101703.38;5036081;28;20060;-67
2021/10/12 06:39:31;;;;;;;2.65;0.55;;;;;;;9.46;52.12;101705.16;5053585;28;20056;-68
2021/10/12 06:41:59;;;;;;;5.07;0.20;;;;;;;9.45;51.79;101698.19;5050224;28;20507;-68
2021/10/12 06:44:25;;;;;;;8.02;0.47;;;;;;;9.33;52.08;101700.19;5049542;28;20044;-68
2021/10/12 06:46:50;;;;;;;5.15;0.40;;;;;;;9.33;52.08;101702.78;5033269;28;20048;-69
2021/10/12 06:49:16;;;;;;;5.45;0.93;;;;;;;9.15;51.56;101700.56;5053421;28;20731;-67
2021/10/12 06:51:43;;;;;;;4.68;0.35;;;;;;;9.14;50.57;101699.72;5042965;28;20144;-69
2021/10/12 06:54:09;;;;;;;7.57;1.08;;;;;;;9.70;49.41;101698.47;5034426;28;20580;-68
2021/10/12 06:56:34;;;;;;;3.95;0.22;;;;;;;11.14;46.35;101702.63;5049977;28;20058;-68
2021/10/12 06:59:00;;;;;;;4.07;0.47;;;;;;;13.03;39.84;101706.94;5026176;28;20124;-68
2021/10/12 07:01:26;;;;;;;6.30;0.25;;;;;;;14.75;37.87;101701.75;5031652;28;20041;-68
2021/10/12 07:03:52;;;;;;;1.90;0.10;;;;;;;15.46;33.86;101696.75;5050447;28;20040;-67
2021/10/12 07:06:17;;;;;;;4.00;0.10;;;;;;;16.82;31.69;101702.25;5043170;28;20119;-68
2021/10/12 07:08:43;;;;;;;4.07;0.60;;;;;;;16.98;32.27;101696.16;5049889;28;20064;-68
2021/10/12 07:11:08;;;;;;;6.57;0.57;;;;;;;18.40;30.87;101703.03;5052263;28;20384;-68
2021/10/12 07:13:34;;;;;;;9.02;0.30;;;;;;;19.05;28.52;101699.94;5035492;28;20041;-68
2021/10/12 07:16:00;;;;;;;5.40;0.32;;;;;;;19.57;29.07;101695.81;5009751;28;20132;-68
2021/10/12 07:18:25;;;;;;;13.20;0.50;;;;;;;19.73;27.30;101695.63;5048591;28;20302;-69
2021/10/12 07:20:51;;;;;;;3.72;0.20;;;;;;;20.38;26.74;101701.94;5051464;28;20044;-69
2021/10/12 07:23:17;;;;;;;3.03;0.57;;;;;;;20.19;27.20;101697.00;5051049;28;20394;-69
2021/10/12 07:25:48;;;;;;;3.78;0.20;;;;;;;19.01;28.62;101702.88;5051273;28;20036;-69
2021/10/12 07:28:14;;;;;;;6.90;0.30;;;;;;;17.46;30.30;101699.66;5022776;28;20085;-68
2021/10/12 07:30:40;;;;;;;2.00;0.10;;;;;;;18.64;29.93;101702.50;5014776;28;20485;-69
2021/10/12 07:33:06;;;;;;;1.67;0.20;;;;;;;19.59;27.54;101696.56;5042766;28;20093;-70
2021/10/12 07:35:31;;;;;;;1.55;0.28;;;;;;;20.57;26.07;101694.38;5049795;28;20033;-69
2021/10/12 07:37:57;;;;;;;4.18;0.25;;;;;;;20.03;25.81;101689.22;5031617;28;20060;-68
2021/10/12 07:40:23;;;;;;;3.58;0.10;;;;;;;18.48;27.91;101699.94;5050575;28;20068;-68
2021/10/12 07:42:48;;;;;;;1.95;0.15;;;;;;;18.81;28.18;101704.97;5049355;28;20032;-68
2021/10/12 07:45:13;;;;;;;3.30;0.20;;;;;;;16.13;31.78;101704.94;5033596;28;20480;-69
2021/10/12 07:47:39;;;;;;;5.07;0.20;;;;;;;14.33;35.49;101718.44;5045006;28;20494;-68
2021/10/12 07:50:05;;;;;;;4.15;0.10;;;;;;;12.70;39.25;101715.09;5046506;28;20062;-67
2021/10/12 07:52:33;;;;;;;3.97;0.10;;;;;;;13.10;38.79;101713.66;5045873;28;20129;-68
2021/10/12 07:57:33;;;;;;;6.18;0.17;;;;;;;16.68;31.87;101715.28;5034335;28;20051;-68
2021/10/12 07:59:58;;;;;;;1.05;0.03;;;;;;;17.56;29.94;101718.50;5027491;28;20037;-68
2021/10/12 08:02:24;;;;;;;3.83;0.20;;;;;;;17.33;29.64;101711.84;5018279;28;20042;-70
2021/10/12 08:04:49;;;;;;;6.93;0.52;;;;;;;16.05;32.94;101713.25;5031258;28;20614;-68
2021/10/12 08:07:15;;;;;;;0.32;0.13;;;;;;;17.26;30.96;101713.13;5040805;28;20037;-68
2021/10/12 08:09:40;;;;;;;6.50;0.52;;;;;;;18.59;29.83;101709.88;5028467;28;20105;-68
2021/10/12 08:12:08;;;;;;;0.93;0.08;;;;;;;19.67;27.97;101712.78;5016453;28;20040;-70
2021/10/12 08:14:38;;;;;;;3.03;0.10;;;;;;;20.42;27.56;101711.41;5048258;28;20036;-68
2021/10/12 08:17:04;;;;;;;2.50;0.10;;;;;;;19.16;28.02;101709.88;5045036;28;20044;-69
2021/10/12 08:19:31;;;;;;;2.60;0.10;;;;;;;19.48;27.32;101709.63;5046671;28;20024;-69
2021/10/12 08:21:57;;;;;;;2.17;0.17;;;;;;;19.62;27.54;101706.94;5046707;28;20413;-69
2021/10/12 08:24:22;;;;;;;4.00;0.47;;;;;;;19.10;27.43;101726.19;5046079;28;20025;-69
2021/10/12 08:26:49;;;;;;;3.30;0.10;;;;;;;15.20;33.80;101732.19;5044542;28;20037;-68
2021/10/12 08:29:17;;;;;;;2.08;0.10;;;;;;;12.62;38.83;101743.31;5010802;28;20285;-68
2021/10/12 08:31:44;;;;;;;3.78;0.20;;;;;;;11.82;40.84;101746.00;5030702;28;20032;-68
2021/10/12 08:34:10;;;;;;;3.17;0.20;;;;;;;10.95;43.52;101744.16;5036119;28;20065;-68
2021/10/12 08:36:38;;;;;;;4.32;0.10;;;;;;;10.01;44.67;101745.66;5045503;28;20060;-68
2021/10/12 08:39:06;;;;;;;6.15;0.20;;;;;;;10.57;44.08;101751.25;5027675;28;20085;-68
2021/10/12 08:41:37;;;;;;;2.75;0.30;;;;;;;10.43;44.00;101737.66;5015003;28;20364;-68
2021/10/12 08:44:02;;;;;;;1.73;0.10;;;;;;;11.04;42.66;101730.81;5046401;28;20063;-68
2021/10/12 08:46:29;;;;;;;3.08;0.20;;;;;;;11.51;41.79;101729.47;5048687;28;20295;-67
2021/10/12 08:48:56;;;;;;;0.75;0.00;;;;;;;11.60;40.93;101723.97;5027668;28;20140;-68
2021/10/12 08:51:22;;;;;;;3.35;0.30;;;;;;;11.43;41.54;101727.94;4990579;28;20060;-67
2021/10/12 08:53:48;;;;;;;0.68;0.10;;;;;;;12.20;40.60;101725.56;5030547;28;20032;-68
2021/10/12 08:56:13;;;;;;;1.17;0.55;;;;;;;12.35;40.64;101718.06;5014292;28;20033;-68
2021/10/12 08:58:39;;;;;;;1.27;0.00;;;;;;;13.10;39.05;101725.94;5046554;28;20032;-67
2021/10/12 09:01:11;;;;;;;2.25;0.00;;;;;;;13.86;37.70;101730.00;5029359;28;20524;-67
2021/10/12 09:06:30;;;;;;;5.13;0.32;;;;;;;15.13;35.03;101728.97;5024377;28;20037;-67
2021/10/12 09:08:57;;;;;;;0.85;0.10;;;;;;;15.78;34.41;101729.44;5050088;28;20040;-67
2021/10/12 09:11:28;;;;;;;5.57;0.13;;;;;;;15.76;35.21;101725.19;5025419;28;20025;-67
2021/10/12 09:14:02;;;;;;;2.60;0.10;;;;;;;16.11;34.09;101725.28;5046525;28;20088;-67
2021/10/12 09:16:35;;;;;;;1.60;0.15;;;;;;;16.43;32.29;101723.63;5043849;28;20059;-68
2021/10/12 09:19:04;;;;;;;1.77;0.10;;;;;;;16.39;33.05;101717.66;5015825;28;20030;-67
2021/10/12 09:21:33;;;;;;;2.00;0.10;;;;;;;16.12;31.53;101726.97;5026925;28;20238;-67
2021/10/12 09:24:08;;;;;;;2.97;0.10;;;;;;;15.79;33.22;101723.28;5049419;28;20093;-67
2021/10/12 09:26:36;;;;;;;1.95;0.40;;;;;;;15.36;32.39;101721.81;5028987;28;20059;-69
2021/10/12 09:29:17;;;;;;;1.02;0.10;;;;;;;15.42;32.44;101726.81;5027206;28;20494;-66
2021/10/12 09:31:44;;;;;;;0.70;0.25;;;;;;;15.88;31.42;101726.38;5030187;28;20302;-67
2021/10/12 09:34:12;;;;;;;3.78;0.10;;;;;;;16.73;32.22;101721.19;5046967;28;22036;-68
2021/10/12 09:36:40;;;;;;;1.42;0.00;;;;;;;17.18;29.93;101713.53;5042827;28;20033;-69
2021/10/12 09:39:14;;;;;;;4.45;0.55;;;;;;;17.02;29.51;101711.75;5019319;28;20053;-68
2021/10/12 09:41:42;;;;;;;5.63;0.08;;;;;;;16.33;31.33;101715.34;5029043;28;20053;-68
2021/10/12 09:44:15;;;;;;;4.68;0.20;;;;;;;16.30;31.63;101710.22;5045422;28;20468;-68
2021/10/12 09:46:45;;;;;;;0.80;0.10;;;;;;;15.67;32.79;101720.38;5026921;28;20039;-69
2021/10/12 09:49:12;;;;;;;4.35;0.20;;;;;;;15.80;32.20;101726.75;5048115;28;20138;-67
2021/10/12 09:52:01;;;;;;;4.53;0.20;;;;;;;15.56;32.72;101734.91;5044318;28;20675;-68
2021/10/12 09:54:55;;;;;;;1.02;0.10;;;;;;;14.25;34.23;101737.16;5009262;28;20791;-67
2021/10/12 09:57:27;;;;;;;3.47;0.10;;;;;;;13.65;35.21;101736.09;5011186;28;20366;-67
2021/10/12 09:59:53;;;;;;;3.78;0.40;;;;;;;13.42;35.12;101729.94;5034157;28;20029;-69
2021/10/12 10:02:21;;;;;;;2.70;0.15;;;;;;;13.59;34.56;101739.84;5030327;28;20636;-68
2021/10/12 10:04:48;;;;;;;2.15;0.13;;;;;;;13.25;34.25;101734.97;5030904;28;20127;-68
2021/10/12 10:07:31;;;;;;;1.55;0.10;;;;;;;12.82;34.64;101733.94;5034703;28;20454;-69
2021/10/12 10:10:01;;;;;;;0.82;0.17;;;;;;;13.39;33.84;101732.69;5034787;28;20090;-70
2021/10/12 10:12:27;;;;;;;2.60;0.17;;;;;;;13.43;34.78;101736.94;5039320;28;20470;-68
2021/10/12 10:14:53;;;;;;;0.43;0.10;;;;;;;13.96;35.27;101724.38;5030746;28;20033;-67
2021/10/12 10:17:22;;;;;;;1.45;0.10;;;;;;;14.92;32.56;101727.31;5035272;28;20036;-68
2021/10/12 10:19:49;;;;;;;1.75;0.10;;;;;;;15.58;30.34;101726.94;5051878;28;20041;-69
2021/10/12 10:22:44;;;;;;;4.78;0.28;;;;;;;15.59;30.45;101729.50;5051022;28;20540;-68
2021/10/12 10:25:29;;;;;;;2.38;0.10;;;;;;;16.32;30.09;101723.31;5031677;28;20331;-68
2021/10/12 10:28:18;;;;;;;6.10;0.52;;;;;;;15.95;30.31;101720.72;5033990;28;20072;-68
2021/10/12 10:30:52;;;;;;;2.35;0.40;;;;;;;16.27;30.66;101722.72;5045881;22;20136;-65
2021/10/12 10:33:32;;;;;;;1.23;0.20;;;;;;;16.70;30.06;101720.50;5002638;28;20342;-66
2021/10/12 10:36:10;;;;;;;1.98;0.10;;;;;;;16.77;30.63;101722.75;5006401;28;20128;-65
2021/10/12 10:38:43;;;;;;;1.48;0.45;;;;;;;16.52;30.86;101717.88;5019620;28;20037;-65
2021/10/12 10:41:10;;;;;;;3.47;0.17;;;;;;;16.54;29.48;101717.81;5009027;28;20188;-65
2021/10/12 10:43:48;;;;;;;7.43;0.73;;;;;;;16.39;30.00;101712.38;5002371;28;20157;-65
2021/10/12 10:46:35;;;;;;;6.63;0.22;;;;;;;15.47;31.89;101724.81;5007147;28;20037;-65
2021/10/12 10:49:08;;;;;;;1.23;0.10;;;;;;;14.34;33.37;101726.28;5006968;28;20065;-67
2021/10/12 10:52:16;;;;;;;0.93;0.10;;;;;;;14.22;33.47;101726.78;5003995;28;20049;-65
2021/10/12 10:54:44;;;;;;;0.93;0.20;;;;;;;14.03;33.17;101726.72;4985572;28;20151;-66
2021/10/12 10:57:20;;;;;;;1.45;0.10;;;;;;;13.48;33.15;101718.38;5003228;28;20069;-64
2021/10/12 11:00:12;;;;;;;3.50;0.10;;;;;;;13.51;33.87;101728.75;5005716;28;20049;-65
2021/10/12 11:02:37;;;;;;;2.80;0.10;;;;;;;14.00;33.13;101724.19;4996296;28;20498;-65
2021/10/12 11:05:03;;;;;;;5.18;0.10;;;;;;;14.95;32.22;101719.28;4990882;28;20584;-66
2021/10/12 11:07:29;;;;;;;1.15;0.00;;;;;;;15.61;30.55;101716.22;5007519;28;20124;-65
2021/10/12 11:09:56;;;;;;;1.85;0.10;;;;;;;16.18;30.00;101714.31;5006334;28;20156;-66
2021/10/12 11:12:30;;;;;;;0.93;0.00;;;;;;;16.45;29.73;101713.84;5006642;28;20327;-66
2021/10/12 11:15:07;;;;;;;2.75;0.10;;;;;;;16.87;27.78;101698.50;4990261;28;20046;-66
2021/10/12 11:17:32;;;;;;;1.85;0.20;;;;;;;16.24;28.88;101710.50;5006625;28;20054;-65
2021/10/12 11:20:01;;;;;;;3.95;0.10;;;;;;;16.64;28.38;101708.47;5003957;28;20281;-66
2021/10/12 11:22:29;;;;;;;1.90;0.30;;;;;;;16.40;29.68;101711.44;4985401;28;20145;-66
2021/10/12 11:24:55;;;;;;;2.33;0.17;;;;;;;16.34;28.86;101710.91;4986907;28;20053;-66
2021/10/12 11:27:21;;;;;;;0.65;0.32;;;;;;;16.91;27.74;101716.75;5008044;28;20038;-65
2021/10/12 11:30:07;;;;;;;2.70;0.13;;;;;;;16.39;28.23;101717.66;5008604;28;20060;-65
2021/10/12 11:32:34;;;;;;;1.35;0.10;;;;;;;15.30;29.66;101722.94;5008249;28;20100;-65
2021/10/12 11:35:05;;;;;;;1.85;0.20;;;;;;;14.33;34.14;101735.06;5012599;28;20041;-67
2021/10/12 11:37:30;;;;;;;4.07;0.50;;;;;;;13.11;36.00;101735.50;5017785;28;20038;-67
2021/10/12 11:40:17;;;;;;;3.10;0.10;;;;;;;12.67;38.86;101733.56;5020590;28;20041;-64
2021/10/12 11:42:44;;;;;;;7.25;0.70;;;;;;;12.28;40.84;101734.00;5023806;28;20048;-65